Guilford, Ohio
Current Conditions -  °F | °C
As of 2:56 AM on Tuesday 27 Jan 2015 (Local Time) from KBJJ Reporting Station
Haze Haze  
Wind Chill:   Ceiling: 2400
Heat Index: 15°   Visibility: 6mi
Dew Point: 11°   Wind: 7mph
Humidity: 84%   Direction: 330°NNW
Pressure: 29.9"   Gusts: NA
Location:  41.0285°N, 81.8751°W
Report Text: KBJJ 270756Z AUTO 33006KT 6SM BR OVC024 M09/M12 A2990 RMK AO2 SNE08 SLP143 P0000 T10941117 TSNO
Loading
Personal Weather Stations






























Interactive Weather Map New forecast layout! Learn more

10-Day Weather Forecast

Advertisements
Track Severe Weather on mobile